Time;durP1;ratioP1;P1;durP2;ratioP2;P2;SDS_P1;SDS_P2;PMS_P1;PMS_P2;Temp;Humidity;BMP_temperature;BMP_pressure;BME280_temperature;BME280_humidity;BME280_pressure;Samples;Min_cycle;Max_cycle;Signal;HPM_P1;HPM_P2
2023/07/03 00:00:04;;;;;;;14.88;7.43;;;;;;;12.29;100.00;93786.78;5070112;28;20048;-58
2023/07/03 00:02:32;;;;;;;14.88;7.25;;;;;;;12.10;100.00;93787.63;5038744;28;20057;-58
2023/07/03 00:04:58;;;;;;;15.13;7.47;;;;;;;12.05;100.00;93782.63;5056861;28;20451;-58
2023/07/03 00:07:25;;;;;;;15.38;7.60;;;;;;;12.09;100.00;93788.81;5069280;28;20127;-60
2023/07/03 00:09:52;;;;;;;15.27;7.50;;;;;;;12.10;100.00;93795.88;5056729;28;20045;-58
2023/07/03 00:12:19;;;;;;;17.30;8.35;;;;;;;12.09;100.00;93789.63;5050122;28;20049;-58
2023/07/03 00:14:48;;;;;;;15.82;7.72;;;;;;;12.06;100.00;93793.22;5068569;28;20064;-58
2023/07/03 00:17:15;;;;;;;15.88;7.70;;;;;;;12.14;100.00;93791.09;5069331;28;20057;-59
2023/07/03 00:19:41;;;;;;;16.52;7.75;;;;;;;12.23;100.00;93788.50;5069033;28;20045;-60
2023/07/03 00:22:08;;;;;;;15.83;7.83;;;;;;;12.26;100.00;93789.63;5075068;28;20748;-59
2023/07/03 00:24:35;;;;;;;16.48;7.82;;;;;;;12.24;100.00;93790.06;5021460;28;20066;-58
2023/07/03 00:27:02;;;;;;;16.88;7.90;;;;;;;12.26;100.00;93781.38;5051226;28;20067;-58
2023/07/03 00:29:31;;;;;;;15.15;7.32;;;;;;;12.29;100.00;93786.00;5050881;28;20043;-60
2023/07/03 00:31:59;;;;;;;15.40;7.85;;;;;;;12.25;100.00;93782.56;5069466;28;20051;-60
2023/07/03 00:34:26;;;;;;;15.27;7.60;;;;;;;12.24;100.00;93786.53;5049761;28;20086;-59
2023/07/03 00:36:54;;;;;;;15.43;8.05;;;;;;;11.88;100.00;93785.34;5066773;28;20520;-61
2023/07/03 00:39:21;;;;;;;29.55;16.67;;;;;;;12.09;100.00;93788.81;5068283;28;20066;-58
2023/07/03 00:41:48;;;;;;;19.42;9.25;;;;;;;12.10;100.00;93795.88;5056032;28;20037;-60
2023/07/03 00:44:18;;;;;;;15.48;8.45;;;;;;;12.14;100.00;93797.34;5069045;28;20494;-59
2023/07/03 00:46:48;;;;;;;17.20;8.30;;;;;;;12.17;100.00;93792.97;5055084;28;20052;-58
2023/07/03 00:49:17;;;;;;;15.27;7.50;;;;;;;12.15;100.00;93796.16;5069069;28;20040;-60
2023/07/03 00:51:49;;;;;;;14.60;7.70;;;;;;;12.10;100.00;93793.91;5064605;28;20311;-59
2023/07/03 00:54:16;;;;;;;15.48;7.72;;;;;;;11.83;100.00;93790.56;5060021;28;20481;-58
2023/07/03 00:56:42;;;;;;;16.33;7.78;;;;;;;11.75;100.00;93798.97;5068154;28;20037;-58
2023/07/03 00:59:09;;;;;;;16.30;7.83;;;;;;;11.78;100.00;93792.63;5041461;28;20059;-60
2023/07/03 01:01:43;;;;;;;13.73;7.30;;;;;;;11.83;100.00;93801.56;5047039;28;20044;-59
2023/07/03 01:04:15;;;;;;;17.98;7.50;;;;;;;11.82;100.00;93805.53;5068862;28;20412;-58
2023/07/03 01:06:50;;;;;;;17.48;7.80;;;;;;;11.79;100.00;93796.94;5054500;28;20067;-59
2023/07/03 01:09:22;;;;;;;14.00;7.53;;;;;;;11.73;100.00;93793.13;5068763;28;20040;-60
2023/07/03 01:11:49;;;;;;;15.27;7.57;;;;;;;11.78;100.00;93794.59;5054891;28;20047;-59
2023/07/03 01:14:19;;;;;;;15.15;7.78;;;;;;;11.79;100.00;93785.13;5058090;28;20051;-58
2023/07/03 01:16:49;;;;;;;14.75;7.70;;;;;;;11.75;100.00;93792.69;5066072;28;20244;-59
2023/07/03 01:19:23;;;;;;;14.88;8.05;;;;;;;11.78;100.00;93789.09;5068534;28;20291;-60
2023/07/03 01:22:07;;;;;;;14.38;7.13;;;;;;;11.76;100.00;93786.00;5062578;28;20029;-60
2023/07/03 01:24:45;;;;;;;14.47;7.20;;;;;;;11.76;100.00;93786.00;5055384;28;20336;-58
2023/07/03 01:27:16;;;;;;;15.00;7.53;;;;;;;11.72;100.00;93785.31;5067365;28;20059;-58
2023/07/03 01:29:45;;;;;;;14.25;7.40;;;;;;;11.66;100.00;93784.25;5060542;28;20044;-58
2023/07/03 01:32:14;;;;;;;15.07;7.57;;;;;;;11.56;100.00;93792.31;5073048;28;20097;-60
2023/07/03 01:34:45;;;;;;;13.55;7.35;;;;;;;11.63;100.00;93799.63;5057233;28;20045;-58
2023/07/03 01:37:14;;;;;;;17.00;8.23;;;;;;;11.62;100.00;93795.34;5054993;28;20044;-60
2023/07/03 01:39:45;;;;;;;15.30;7.70;;;;;;;11.67;100.00;93794.03;5067754;28;20045;-60
2023/07/03 01:42:13;;;;;;;16.20;7.35;;;;;;;11.55;100.00;93790.75;5068324;28;20110;-58
2023/07/03 01:44:40;;;;;;;15.43;7.45;;;;;;;11.49;100.00;93780.69;5067767;28;20040;-58
2023/07/03 01:47:10;;;;;;;16.02;7.55;;;;;;;11.43;100.00;93785.91;5067571;28;20409;-58
2023/07/03 01:49:37;;;;;;;14.43;6.80;;;;;;;11.42;100.00;93797.31;5054284;28;20049;-57
2023/07/03 01:52:28;;;;;;;16.80;7.75;;;;;;;11.44;100.00;93789.44;5068133;28;20036;-58
2023/07/03 01:55:00;;;;;;;13.85;7.63;;;;;;;11.53;100.00;93790.41;5067257;28;20569;-59
2023/07/03 01:57:45;;;;;;;16.10;7.72;;;;;;;11.52;100.00;93785.34;5049761;28;20041;-59
2023/07/03 02:00:27;;;;;;;13.70;6.82;;;;;;;11.51;100.00;93792.03;5068293;28;20094;-58
2023/07/03 02:02:59;;;;;;;16.03;6.97;;;;;;;11.67;100.00;93786.59;5067241;28;20588;-58
2023/07/03 02:05:29;;;;;;;15.18;7.43;;;;;;;11.79;100.00;93776.88;5049661;28;20052;-59
2023/07/03 02:07:59;;;;;;;15.82;7.47;;;;;;;11.89;100.00;93784.19;5050223;28;20052;-60
2023/07/03 02:10:27;;;;;;;13.48;7.20;;;;;;;12.02;100.00;93786.25;5066124;28;20044;-60
2023/07/03 02:12:54;;;;;;;15.02;7.57;;;;;;;12.06;100.00;93787.72;5056486;28;20045;-60
2023/07/03 02:15:20;;;;;;;13.73;6.83;;;;;;;12.11;100.00;93784.47;5067593;28;20041;-59
2023/07/03 02:17:47;;;;;;;15.70;7.20;;;;;;;12.08;100.00;93782.56;5067539;28;20051;-58
2023/07/03 02:20:14;;;;;;;14.30;6.80;;;;;;;12.07;100.00;93785.72;5071751;28;20082;-58
2023/07/03 02:22:41;;;;;;;13.35;7.43;;;;;;;11.96;100.00;93781.25;5067132;28;20040;-58
2023/07/03 02:25:11;;;;;;;17.25;7.28;;;;;;;11.89;100.00;93780.63;5067887;28;20458;-59
2023/07/03 02:27:42;;;;;;;14.93;7.50;;;;;;;11.79;100.00;93783.19;5049126;28;20048;-58
2023/07/03 02:30:10;;;;;;;16.83;7.38;;;;;;;11.93;100.00;93781.31;5075655;28;20052;-57
2023/07/03 02:32:38;;;;;;;14.27;7.32;;;;;;;11.92;100.00;93788.03;5061753;28;20047;-58
2023/07/03 02:35:06;;;;;;;13.95;7.18;;;;;;;11.82;100.00;93787.03;5056018;28;20109;-58
2023/07/03 02:37:33;;;;;;;15.00;7.88;;;;;;;11.69;100.00;93788.91;5052394;28;20049;-58
2023/07/03 02:40:01;;;;;;;14.63;7.40;;;;;;;11.71;100.00;93792.78;5067781;28;20036;-58
2023/07/03 02:42:27;;;;;;;13.30;7.18;;;;;;;11.79;100.00;93791.44;5067248;28;20323;-59
2023/07/03 02:44:54;;;;;;;18.73;8.15;;;;;;;11.69;100.00;93794.41;5067797;28;20049;-58
2023/07/03 02:47:21;;;;;;;13.98;7.38;;;;;;;11.80;100.00;93789.44;5067906;28;20047;-58
2023/07/03 02:49:48;;;;;;;16.52;7.75;;;;;;;11.97;100.00;93782.03;5048981;28;20045;-59
2023/07/03 02:52:14;;;;;;;14.00;7.30;;;;;;;12.14;100.00;93783.59;5067505;28;20036;-58
2023/07/03 02:54:41;;;;;;;13.85;7.03;;;;;;;12.17;100.00;93781.94;5066686;28;20044;-60
2023/07/03 02:57:08;;;;;;;15.15;7.80;;;;;;;12.14;100.00;93788.31;5067267;28;20055;-59
2023/07/03 02:59:34;;;;;;;13.95;7.50;;;;;;;12.10;100.00;93785.66;5050731;28;20060;-58
2023/07/03 03:02:01;;;;;;;15.90;7.85;;;;;;;12.15;100.00;93779.66;5071094;28;20041;-58
2023/07/03 03:04:28;;;;;;;13.90;6.90;;;;;;;12.16;100.00;93788.69;5068711;28;20055;-58
2023/07/03 03:06:55;;;;;;;15.18;7.82;;;;;;;12.25;100.00;93780.56;5071084;28;20454;-58
2023/07/03 03:09:23;;;;;;;14.63;7.60;;;;;;;12.32;100.00;93782.41;5070806;28;20045;-58
2023/07/03 03:11:49;;;;;;;16.05;7.72;;;;;;;12.36;100.00;93789.38;5064260;28;20067;-59
2023/07/03 03:14:16;;;;;;;16.90;7.28;;;;;;;12.19;100.00;93779.53;5064167;28;20044;-58
2023/07/03 03:16:43;;;;;;;15.63;7.57;;;;;;;12.15;100.00;93789.88;5069859;28;20067;-60
2023/07/03 03:19:10;;;;;;;15.05;7.65;;;;;;;12.08;100.00;93790.81;5070619;28;20047;-58
2023/07/03 03:21:38;;;;;;;14.23;7.32;;;;;;;12.05;100.00;93783.41;5080675;28;20041;-59
2023/07/03 03:24:04;;;;;;;14.60;7.68;;;;;;;12.04;100.00;93789.34;5070448;28;20056;-60
2023/07/03 03:26:31;;;;;;;14.88;7.53;;;;;;;12.04;100.00;93792.09;5038561;28;20138;-59
2023/07/03 03:28:58;;;;;;;14.83;7.63;;;;;;;11.98;100.00;93791.84;5070932;28;20070;-60
2023/07/03 03:31:25;;;;;;;16.48;7.38;;;;;;;11.94;100.00;93789.16;5070400;28;20117;-59
2023/07/03 03:33:52;;;;;;;13.10;7.30;;;;;;;12.06;100.00;93784.19;5065177;28;20055;-58
2023/07/03 03:36:19;;;;;;;14.77;7.53;;;;;;;12.18;100.00;93783.53;5053994;28;20045;-58
2023/07/03 03:38:45;;;;;;;15.82;7.80;;;;;;;12.34;100.00;93780.00;5051502;28;20053;-59
2023/07/03 03:41:12;;;;;;;18.90;7.93;;;;;;;12.28;100.00;93781.72;5070179;28;20045;-58
2023/07/03 03:43:39;;;;;;;14.75;7.75;;;;;;;12.48;100.00;93776.13;5069630;28;20044;-58
2023/07/03 03:46:05;;;;;;;14.77;7.80;;;;;;;12.60;100.00;93778.19;5052624;28;20047;-58
2023/07/03 03:48:33;;;;;;;14.93;7.70;;;;;;;12.53;100.00;93776.34;5066390;28;20584;-58
2023/07/03 03:51:00;;;;;;;17.50;8.00;;;;;;;12.36;100.00;93772.09;5060425;28;20097;-58
2023/07/03 03:53:27;;;;;;;15.03;7.90;;;;;;;12.51;100.00;93775.25;5069417;28;20044;-58
2023/07/03 03:55:54;;;;;;;16.33;7.75;;;;;;;12.46;100.00;93775.78;5052065;28;20307;-59
2023/07/03 03:58:21;;;;;;;19.55;10.52;;;;;;;12.52;100.00;93772.06;5069974;28;20489;-60
2023/07/03 04:00:50;;;;;;;17.38;9.27;;;;;;;12.60;100.00;93778.19;5054760;28;20048;-59
2023/07/03 04:03:17;;;;;;;17.58;8.10;;;;;;;12.74;100.00;93777.81;5069992;28;20045;-58
2023/07/03 04:05:44;;;;;;;14.77;7.63;;;;;;;12.56;100.00;93778.25;5047754;28;20052;-58
2023/07/03 04:08:11;;;;;;;15.98;7.93;;;;;;;12.59;100.00;93777.38;5060445;28;20401;-58
2023/07/03 04:10:39;;;;;;;14.32;7.50;;;;;;;12.35;100.00;93785.06;5065833;28;20053;-60
2023/07/03 04:13:06;;;;;;;17.08;8.10;;;;;;;12.38;100.00;93795.22;5056445;28;20147;-60
2023/07/03 04:15:35;;;;;;;15.40;7.93;;;;;;;12.45;100.00;93793.50;5051093;28;20665;-60
2023/07/03 04:18:02;;;;;;;16.27;7.30;;;;;;;12.62;100.00;93791.50;5063480;28;20053;-58
2023/07/03 04:20:29;;;;;;;16.65;8.02;;;;;;;12.82;100.00;93791.38;5068529;28;20028;-59
2023/07/03 04:22:56;;;;;;;16.42;7.90;;;;;;;12.86;100.00;93784.59;5069486;28;20054;-60
2023/07/03 04:25:23;;;;;;;15.25;7.88;;;;;;;12.87;100.00;93788.88;5057969;28;20493;-58
2023/07/03 04:27:49;;;;;;;16.98;7.78;;;;;;;13.08;100.00;93786.75;5060231;28;20044;-58
2023/07/03 04:30:16;;;;;;;15.27;7.40;;;;;;;13.29;100.00;93782.66;5068703;28;20040;-59
2023/07/03 04:32:43;;;;;;;16.50;7.68;;;;;;;13.18;100.00;93785.72;5070805;28;20037;-60
2023/07/03 04:35:10;;;;;;;14.60;7.97;;;;;;;13.07;100.00;93786.00;5034271;28;20041;-59
2023/07/03 04:37:37;;;;;;;13.48;7.70;;;;;;;12.99;100.00;93784.63;5056770;28;20393;-60
2023/07/03 04:40:04;;;;;;;15.55;7.60;;;;;;;13.21;100.00;93778.56;5068788;28;20109;-59
2023/07/03 04:42:31;;;;;;;15.47;7.50;;;;;;;13.23;100.00;93785.16;5068418;28;20052;-58
2023/07/03 04:45:01;;;;;;;15.23;7.70;;;;;;;13.30;100.00;93782.25;5069039;28;20044;-58
2023/07/03 04:47:28;;;;;;;15.73;7.97;;;;;;;13.38;100.00;93783.59;5060402;28;20063;-58
2023/07/03 04:49:58;;;;;;;13.77;7.60;;;;;;;13.58;100.00;93780.69;5063816;28;20052;-59
2023/07/03 04:52:27;;;;;;;14.93;7.63;;;;;;;13.68;100.00;93798.13;5064021;28;20055;-58
2023/07/03 04:54:54;;;;;;;15.70;7.50;;;;;;;13.90;100.00;93791.97;5022891;28;20786;-58
2023/07/03 04:57:21;;;;;;;15.90;7.65;;;;;;;14.15;100.00;93788.44;5067684;28;20044;-58
2023/07/03 04:59:48;;;;;;;14.30;7.60;;;;;;;14.31;100.00;93790.31;5061367;28;20201;-59
2023/07/03 05:02:18;;;;;;;15.02;7.13;;;;;;;14.25;100.00;93783.81;5042225;28;20505;-60
2023/07/03 05:04:45;;;;;;;14.60;7.10;;;;;;;13.84;100.00;93788.97;5067958;28;20092;-59
2023/07/03 05:07:12;;;;;;;15.57;7.00;;;;;;;13.95;100.00;93794.19;5049944;28;20037;-60
2023/07/03 05:09:39;;;;;;;13.77;7.20;;;;;;;14.22;100.00;93795.72;5068324;28;20125;-59
2023/07/03 05:12:06;;;;;;;14.75;7.70;;;;;;;14.22;100.00;93785.44;5050844;28;20046;-60
2023/07/03 05:14:35;;;;;;;15.90;7.43;;;;;;;14.61;100.00;93796.47;5068152;28;20036;-58
2023/07/03 05:17:02;;;;;;;14.82;7.57;;;;;;;14.87;100.00;93788.91;5050812;28;20052;-58
2023/07/03 05:19:29;;;;;;;13.40;7.23;;;;;;;14.95;100.00;93793.75;5060198;28;20518;-58
2023/07/03 05:21:56;;;;;;;13.82;7.10;;;;;;;15.06;100.00;93804.44;5056603;28;20040;-60
2023/07/03 05:24:22;;;;;;;15.80;7.38;;;;;;;15.03;100.00;93790.75;5044032;28;20041;-59
2023/07/03 05:26:49;;;;;;;14.13;7.70;;;;;;;15.21;100.00;93799.19;5042932;28;20096;-59
2023/07/03 05:29:16;;;;;;;16.80;7.82;;;;;;;15.15;100.00;93796.25;5050908;28;20396;-61
2023/07/03 05:31:44;;;;;;;14.57;7.73;;;;;;;15.36;100.00;93797.47;5065123;28;20045;-58
2023/07/03 05:34:11;;;;;;;14.68;7.82;;;;;;;15.20;100.00;93805.19;5045416;28;20478;-58
2023/07/03 05:36:38;;;;;;;14.90;8.18;;;;;;;15.49;100.00;93800.19;5059649;28;20048;-59
2023/07/03 05:39:05;;;;;;;14.00;7.72;;;;;;;15.74;100.00;93793.75;5050825;28;20409;-60
2023/07/03 05:41:32;;;;;;;16.48;8.35;;;;;;;15.28;100.00;93809.25;5058158;28;20035;-59
2023/07/03 05:43:58;;;;;;;17.67;8.63;;;;;;;16.12;100.00;93797.50;5068197;28;20405;-59
2023/07/03 05:46:25;;;;;;;14.30;7.82;;;;;;;17.50;100.00;93805.34;5060477;28;20037;-57
2023/07/03 05:48:52;;;;;;;14.10;7.85;;;;;;;17.99;100.00;93793.28;5037860;28;20623;-59
2023/07/03 05:51:18;;;;;;;13.63;7.53;;;;;;;18.10;100.00;93792.78;5067860;28;20447;-59
2023/07/03 05:53:45;;;;;;;15.05;8.02;;;;;;;18.55;100.00;93799.41;5029843;28;20044;-61
2023/07/03 05:56:12;;;;;;;13.87;7.70;;;;;;;18.83;98.21;93793.72;5061072;28;20051;-60
2023/07/03 05:58:39;;;;;;;13.95;7.25;;;;;;;18.87;96.66;93797.88;5049843;28;20044;-59
2023/07/03 06:01:05;;;;;;;17.77;8.02;;;;;;;18.87;94.22;93797.09;5056499;28;20047;-59
2023/07/03 06:03:32;;;;;;;15.30;7.60;;;;;;;19.21;93.28;93806.91;5059007;28;20652;-62
2023/07/03 06:05:59;;;;;;;14.05;7.15;;;;;;;18.91;90.27;93806.03;5031331;28;20067;-59
2023/07/03 06:08:26;;;;;;;13.60;7.67;;;;;;;19.04;91.82;93809.38;5064720;28;20048;-61
2023/07/03 06:10:53;;;;;;;14.85;7.35;;;;;;;18.52;94.93;93811.47;5067744;28;20049;-60
2023/07/03 06:13:19;;;;;;;14.43;7.30;;;;;;;18.47;94.91;93817.66;5067942;28;20470;-61
2023/07/03 06:15:46;;;;;;;13.15;6.80;;;;;;;18.47;92.30;93812.09;5049646;28;20090;-60
2023/07/03 06:18:14;;;;;;;12.60;6.55;;;;;;;18.80;90.12;93811.38;5067618;28;20049;-60
2023/07/03 06:20:41;;;;;;;13.90;7.10;;;;;;;18.71;91.02;93814.91;5057412;28;20036;-60
2023/07/03 06:23:08;;;;;;;13.95;6.90;;;;;;;18.93;90.66;93812.69;5036138;28;20086;-61
2023/07/03 06:25:34;;;;;;;11.50;6.20;;;;;;;20.06;84.25;93819.69;5047120;28;20072;-61
2023/07/03 06:28:02;;;;;;;13.20;6.25;;;;;;;20.27;78.20;93815.75;5029802;28;20427;-60
2023/07/03 06:30:28;;;;;;;13.63;6.53;;;;;;;19.99;77.05;93814.50;5033570;28;20051;-61
2023/07/03 06:32:55;;;;;;;12.87;6.50;;;;;;;20.45;75.73;93806.41;5048584;28;20136;-62
2023/07/03 06:35:22;;;;;;;11.98;6.53;;;;;;;20.20;74.32;93813.34;5049463;28;20106;-60
2023/07/03 06:37:52;;;;;;;11.90;6.30;;;;;;;19.88;76.30;93809.50;5057810;28;20117;-62
2023/07/03 06:40:19;;;;;;;13.60;6.60;;;;;;;20.10;75.52;93812.69;5064232;28;20041;-62
2023/07/03 06:42:45;;;;;;;13.23;6.50;;;;;;;19.44;75.80;93812.97;5065026;28;20486;-61
2023/07/03 06:45:12;;;;;;;13.70;6.97;;;;;;;20.02;76.11;93819.09;5066692;28;20033;-60
2023/07/03 06:47:39;;;;;;;15.38;6.60;;;;;;;20.43;75.04;93817.28;5063895;28;20036;-61
2023/07/03 06:50:07;;;;;;;13.88;7.07;;;;;;;21.24;71.38;93824.31;5052128;28;20056;-61
2023/07/03 06:52:37;;;;;;;15.30;7.20;;;;;;;20.52;69.24;93821.97;5069516;28;20040;-61
2023/07/03 06:55:04;;;;;;;13.43;6.78;;;;;;;19.71;72.63;93823.13;5070787;28;20044;-60
2023/07/03 06:57:33;;;;;;;12.97;6.63;;;;;;;20.33;70.95;93822.19;5057074;28;20260;-61
2023/07/03 07:00:00;;;;;;;14.90;6.90;;;;;;;20.94;67.30;93816.03;5071182;28;20055;-61
2023/07/03 07:02:27;;;;;;;14.25;7.15;;;;;;;20.12;68.99;93812.19;5052911;28;20040;-63
2023/07/03 07:04:55;;;;;;;15.07;7.10;;;;;;;21.50;66.01;93818.81;5070991;28;20436;-61
2023/07/03 07:07:22;;;;;;;13.48;6.72;;;;;;;22.33;61.01;93813.84;5071198;28;20485;-62
2023/07/03 07:09:48;;;;;;;16.23;7.00;;;;;;;24.00;55.80;93811.00;5070597;28;20044;-61
2023/07/03 07:12:15;;;;;;;12.15;6.35;;;;;;;27.03;48.41;93818.97;5053451;28;20052;-61
2023/07/03 07:14:42;;;;;;;12.57;6.80;;;;;;;29.39;38.90;93805.78;5070394;28;20048;-61
2023/07/03 07:17:09;;;;;;;12.77;6.88;;;;;;;28.74;38.26;93800.22;5064471;28;20057;-62
2023/07/03 07:19:36;;;;;;;12.63;6.50;;;;;;;27.87;38.62;93808.91;5063811;28;20052;-64
2023/07/03 07:22:03;;;;;;;12.63;6.63;;;;;;;27.89;37.31;93800.66;5065725;28;20041;-62
2023/07/03 07:24:29;;;;;;;11.10;6.38;;;;;;;28.19;37.39;93803.34;5058394;28;20110;-63
2023/07/03 07:26:58;;;;;;;10.77;6.32;;;;;;;29.30;35.40;93797.72;5069822;28;20473;-61
2023/07/03 07:29:26;;;;;;;10.52;6.30;;;;;;;29.61;33.74;93796.84;5072471;28;20162;-60
2023/07/03 07:31:56;;;;;;;10.93;6.43;;;;;;;32.55;31.39;93795.97;5073306;28;20040;-61
2023/07/03 07:34:24;;;;;;;10.37;6.50;;;;;;;33.60;28.24;93802.84;5065231;28;20043;-61
2023/07/03 07:36:51;;;;;;;9.65;5.93;;;;;;;33.48;28.17;93796.78;5059745;28;20393;-61
2023/07/03 07:39:21;;;;;;;11.75;6.57;;;;;;;29.84;30.80;93802.06;5070237;28;20046;-60
2023/07/03 07:41:50;;;;;;;12.10;6.07;;;;;;;31.03;29.95;93806.63;5070299;28;20396;-61
2023/07/03 07:44:18;;;;;;;10.60;6.25;;;;;;;29.72;30.33;93801.56;5070115;28;20045;-64
2023/07/03 07:46:45;;;;;;;11.40;5.70;;;;;;;28.91;32.80;93797.09;5070257;28;20505;-61
2023/07/03 07:49:11;;;;;;;10.95;6.07;;;;;;;30.51;30.82;93793.47;5057473;28;20040;-61
2023/07/03 07:51:40;;;;;;;10.60;6.00;;;;;;;29.94;31.20;93796.72;5069824;28;20049;-62
2023/07/03 07:54:07;;;;;;;10.07;5.95;;;;;;;29.67;31.18;93802.41;5070384;28;20059;-61
2023/07/03 07:56:33;;;;;;;10.95;6.20;;;;;;;31.30;29.69;93800.03;5070092;28;20105;-61
2023/07/03 07:59:00;;;;;;;10.33;5.93;;;;;;;28.92;31.94;93792.22;5068508;28;20050;-64
2023/07/03 08:01:27;;;;;;;12.80;5.93;;;;;;;27.12;34.61;93798.16;5058891;28;20048;-61
2023/07/03 08:03:54;;;;;;;13.40;6.20;;;;;;;27.84;34.90;93802.22;5070196;28;20047;-61
2023/07/03 08:06:20;;;;;;;10.48;6.05;;;;;;;25.89;36.52;93807.72;5062357;28;20398;-62
2023/07/03 08:08:49;;;;;;;10.50;6.38;;;;;;;26.53;35.69;93803.25;5046288;28;20044;-61
2023/07/03 08:11:16;;;;;;;12.93;6.40;;;;;;;26.94;34.49;93797.53;5050411;28;20400;-61
2023/07/03 08:13:42;;;;;;;11.98;6.05;;;;;;;27.26;35.14;93797.75;5060782;28;20401;-63
2023/07/03 08:16:10;;;;;;;10.48;5.80;;;;;;;27.04;35.68;93800.78;5069973;28;20069;-63
2023/07/03 08:18:38;;;;;;;13.70;6.22;;;;;;;26.08;36.38;93796.66;5069512;28;20045;-61
2023/07/03 08:21:04;;;;;;;9.70;5.80;;;;;;;24.92;38.07;93798.03;5058068;28;20048;-61
2023/07/03 08:23:31;;;;;;;11.23;5.90;;;;;;;24.95;38.82;93799.09;5069272;28;20069;-61
2023/07/03 08:26:00;;;;;;;11.20;5.60;;;;;;;26.24;37.90;93795.03;5056456;28;20393;-63
2023/07/03 08:28:27;;;;;;;11.32;5.53;;;;;;;26.88;35.95;93797.63;5051294;28;20040;-61
2023/07/03 08:30:57;;;;;;;11.63;5.90;;;;;;;26.97;35.58;93801.38;5080463;28;20412;-61
2023/07/03 08:33:24;;;;;;;11.05;5.35;;;;;;;26.56;35.75;93796.56;5066004;28;20057;-61
2023/07/03 08:35:52;;;;;;;11.83;5.53;;;;;;;25.08;37.40;93793.69;5049186;28;20166;-61
2023/07/03 08:38:22;;;;;;;11.20;5.40;;;;;;;25.14;37.85;93798.53;5058500;28;20462;-61
2023/07/03 08:40:56;;;;;;;13.48;5.50;;;;;;;24.88;40.53;93796.78;5059605;28;20041;-61
2023/07/03 08:43:23;;;;;;;14.00;5.88;;;;;;;25.35;38.75;93787.75;5067173;28;20052;-61
2023/07/03 08:45:51;;;;;;;10.23;5.35;;;;;;;25.61;37.90;93793.03;5068991;28;20041;-61
2023/07/03 08:48:22;;;;;;;12.23;5.60;;;;;;;24.18;39.76;93785.28;5069143;28;20052;-61
2023/07/03 08:50:57;;;;;;;10.13;5.50;;;;;;;25.24;37.74;93789.34;5055431;28;20041;-63
2023/07/03 08:53:29;;;;;;;10.32;5.30;;;;;;;26.02;37.00;93792.34;5069261;28;20375;-61
2023/07/03 08:56:05;;;;;;;11.73;5.32;;;;;;;25.86;37.60;93797.50;5054752;28;20928;-63
2023/07/03 08:58:32;;;;;;;8.70;5.00;;;;;;;25.31;38.36;93791.63;5055774;28;20071;-62
2023/07/03 09:01:13;;;;;;;11.67;5.57;;;;;;;24.72;38.86;93796.28;5050995;28;20044;-61
2023/07/03 09:04:00;;;;;;;11.35;5.57;;;;;;;24.67;39.59;93797.06;5051297;28;20408;-61
2023/07/03 09:06:39;;;;;;;11.68;5.32;;;;;;;24.92;38.15;93805.72;5068450;28;20039;-63
2023/07/03 09:09:45;;;;;;;10.10;5.28;;;;;;;24.09;40.25;93796.75;5066059;28;20066;-64
2023/07/03 09:12:22;;;;;;;9.10;4.82;;;;;;;25.31;38.50;93793.66;5067968;28;21660;-63
2023/07/03 09:14:56;;;;;;;10.50;5.53;;;;;;;25.05;38.03;93794.72;5054668;28;20037;-61
2023/07/03 09:17:25;;;;;;;12.75;4.95;;;;;;;26.18;37.79;93790.69;5068863;28;20048;-61
2023/07/03 09:19:55;;;;;;;11.80;5.60;;;;;;;25.82;36.16;93804.69;5069652;28;20044;-61
2023/07/03 09:22:40;;;;;;;10.77;5.68;;;;;;;25.14;38.51;93806.97;5079318;28;20051;-61
2023/07/03 09:25:12;;;;;;;12.00;5.63;;;;;;;24.62;38.54;93803.44;5067009;28;20432;-61
2023/07/03 09:27:41;;;;;;;11.97;5.40;;;;;;;23.20;41.66;93800.75;5068096;28;20045;-61
2023/07/03 09:30:12;;;;;;;9.68;5.55;;;;;;;23.87;40.46;93805.88;5071092;28;20044;-60
2023/07/03 09:32:40;;;;;;;10.65;5.35;;;;;;;23.94;40.67;93810.97;5068246;28;20059;-60
2023/07/03 09:35:21;;;;;;;11.15;5.10;;;;;;;24.69;40.09;93813.41;5051157;28;20048;-63
2023/07/03 09:37:57;;;;;;;9.55;4.80;;;;;;;24.92;38.45;93814.13;5054366;28;20066;-60
2023/07/03 09:40:28;;;;;;;13.93;5.20;;;;;;;24.83;37.82;93809.56;5060675;28;20045;-61
2023/07/03 09:42:55;;;;;;;11.75;4.80;;;;;;;24.36;39.50;93825.34;5063136;28;20930;-62
2023/07/03 09:45:28;;;;;;;9.07;5.10;;;;;;;24.25;38.88;93817.69;5068578;28;20040;-61
2023/07/03 09:47:59;;;;;;;8.65;4.68;;;;;;;24.42;39.30;93815.66;5067865;28;20069;-64
2023/07/03 09:50:32;;;;;;;10.52;4.93;;;;;;;24.65;39.20;93810.06;5068107;28;20337;-61
2023/07/03 09:53:01;;;;;;;11.13;4.97;;;;;;;25.89;36.75;93813.31;5050847;28;20040;-61
2023/07/03 09:55:34;;;;;;;8.85;4.65;;;;;;;26.02;35.36;93810.00;5055887;28;20041;-60
2023/07/03 09:58:11;;;;;;;9.43;5.07;;;;;;;26.93;34.96;93815.75;5067011;28;20053;-61
2023/07/03 10:00:49;;;;;;;8.07;4.90;;;;;;;26.11;35.60;93817.34;5068082;28;20048;-60
2023/07/03 10:03:28;;;;;;;9.18;4.85;;;;;;;27.03;34.29;93811.28;5055461;28;20117;-61
2023/07/03 10:06:10;;;;;;;9.87;4.90;;;;;;;24.58;38.35;93819.75;5067581;28;20397;-61
2023/07/03 10:08:51;;;;;;;9.65;4.78;;;;;;;26.60;34.86;93816.78;5052627;28;20045;-63
2023/07/03 10:11:37;;;;;;;8.95;4.85;;;;;;;27.76;34.28;93809.75;5071973;28;20047;-61
2023/07/03 10:14:09;;;;;;;8.20;4.80;;;;;;;27.22;34.02;93822.63;5071534;28;20200;-61
2023/07/03 10:16:37;;;;;;;11.13;6.18;;;;;;;29.42;31.92;93813.94;5053702;28;20045;-62
2023/07/03 10:19:04;;;;;;;10.20;5.13;;;;;;;31.20;28.81;93803.34;5054324;28;20051;-62
2023/07/03 10:21:33;;;;;;;8.80;4.60;;;;;;;29.99;29.58;93810.00;5072175;28;20106;-64
2023/07/03 10:24:01;;;;;;;10.60;5.10;;;;;;;30.10;29.70;93812.59;5065388;28;20040;-62
2023/07/03 10:26:38;;;;;;;9.30;4.97;;;;;;;27.05;33.68;93822.78;5071045;28;20052;-62
2023/07/03 10:29:19;;;;;;;10.00;5.10;;;;;;;26.76;34.77;93827.13;5071204;28;20070;-61
2023/07/03 10:31:53;;;;;;;8.77;4.93;;;;;;;27.21;34.15;93826.75;5061066;28;20048;-61
2023/07/03 10:34:26;;;;;;;10.82;5.20;;;;;;;28.33;31.90;93818.25;5071597;28;20109;-62
2023/07/03 10:37:02;;;;;;;11.30;4.93;;;;;;;28.74;31.54;93827.69;5071024;28;21466;-61
2023/07/03 10:39:43;;;;;;;11.40;5.10;;;;;;;28.75;31.24;93826.38;5071248;28;20043;-61
2023/07/03 10:42:29;;;;;;;11.00;5.10;;;;;;;25.41;35.63;93817.34;5071704;28;20092;-62
2023/07/03 10:45:01;;;;;;;10.77;5.13;;;;;;;27.56;34.14;93821.53;5042667;28;20041;-61
2023/07/03 10:47:56;;;;;;;9.35;4.95;;;;;;;26.54;34.19;93816.81;5069325;28;20109;-63
2023/07/03 10:50:52;;;;;;;8.77;4.82;;;;;;;27.32;33.73;93828.69;5053055;28;20044;-63
2023/07/03 10:53:34;;;;;;;9.13;5.05;;;;;;;26.65;33.68;93830.06;5051446;28;20063;-62
2023/07/03 10:56:23;;;;;;;9.73;5.10;;;;;;;25.94;35.57;93813.84;5070518;28;20070;-61
2023/07/03 10:59:15;;;;;;;9.53;5.10;;;;;;;26.05;36.59;93823.00;5057617;28;20147;-61
2023/07/03 11:01:50;;;;;;;10.00;5.07;;;;;;;25.26;36.37;93814.09;5070084;28;20113;-61
2023/07/03 11:04:24;;;;;;;11.63;5.15;;;;;;;26.00;37.33;93817.41;5061983;28;20041;-63
2023/07/03 11:07:26;;;;;;;11.00;5.05;;;;;;;24.84;37.21;93807.50;5050614;28;21431;-61
2023/07/03 11:10:18;;;;;;;8.93;4.82;;;;;;;24.85;38.25;93817.44;5058511;28;21542;-61
2023/07/03 11:12:54;;;;;;;11.43;5.33;;;;;;;24.91;37.56;93816.19;5049979;28;20044;-61
2023/07/03 11:15:41;;;;;;;10.27;5.13;;;;;;;24.49;37.13;93806.72;5070948;28;20067;-61
2023/07/03 11:18:17;;;;;;;9.75;4.97;;;;;;;25.39;37.18;93805.88;5069646;28;20544;-60
2023/07/03 11:21:07;;;;;;;12.45;5.45;;;;;;;24.62;38.32;93809.03;5061890;28;20059;-60
2023/07/03 11:23:52;;;;;;;8.02;4.78;;;;;;;25.19;38.29;93808.97;5070302;28;20053;-60
2023/07/03 11:26:36;;;;;;;10.30;4.90;;;;;;;25.76;37.58;93815.97;5070477;28;20124;-63
2023/07/03 11:29:08;;;;;;;10.20;4.93;;;;;;;24.70;37.95;93820.53;5056544;28;20210;-62
2023/07/03 11:31:38;;;;;;;10.38;5.05;;;;;;;25.05;38.34;93813.59;5076829;28;20417;-61
2023/07/03 11:34:10;;;;;;;10.38;5.07;;;;;;;24.98;39.14;93814.13;5070823;28;20124;-60